Time;durP1;ratioP1;P1;durP2;ratioP2;P2;SDS_P1;SDS_P2;PMS_P1;PMS_P2;Temp;Humidity;BMP_temperature;BMP_pressure;BME280_temperature;BME280_humidity;BME280_pressure;Samples;Min_cycle;Max_cycle;Signal;HPM_P1;HPM_P2
2022/04/26 03:37:07;;;;;;;25.67;18.50;;;9.60;95.90;;;;;;5116423;28;20038;-69
2022/04/26 03:39:33;;;;;;;21.52;18.00;;;9.60;95.90;;;;;;5115510;28;20019;-69
2022/04/26 03:42:00;;;;;;;23.02;18.05;;;9.60;95.60;;;;;;5116365;28;20030;-68
2022/04/26 03:44:26;;;;;;;23.92;19.35;;;9.60;95.10;;;;;;5115763;28;20032;-69
2022/04/26 03:46:52;;;;;;;23.45;18.70;;;9.60;95.30;;;;;;5116318;28;20019;-70
2022/04/26 03:49:19;;;;;;;23.95;18.80;;;9.60;95.30;;;;;;5116154;28;20026;-69
2022/04/26 03:51:45;;;;;;;23.23;18.38;;;9.60;95.40;;;;;;5115915;28;20023;-69
2022/04/26 03:54:11;;;;;;;23.45;18.73;;;9.60;95.50;;;;;;5116385;28;20376;-69
2022/04/26 03:56:36;;;;;;;24.85;18.60;;;9.60;95.50;;;;;;5115487;28;20415;-69
2022/04/26 03:59:02;;;;;;;22.02;18.13;;;9.60;95.60;;;;;;5115753;28;20067;-69
2022/04/26 04:01:28;;;;;;;25.17;19.00;;;9.60;95.60;;;;;;5115416;28;20024;-70
2022/04/26 04:03:53;;;;;;;20.88;17.05;;;9.50;95.80;;;;;;5115987;28;20030;-68
2022/04/26 04:06:19;;;;;;;23.08;19.45;;;9.50;96.00;;;;;;5115906;28;20026;-69
2022/04/26 04:08:44;;;;;;;21.98;17.88;;;9.50;96.10;;;;;;5114978;28;20088;-69
2022/04/26 04:11:10;;;;;;;23.30;19.00;;;9.50;96.20;;;;;;5115829;28;20112;-68
2022/04/26 04:13:36;;;;;;;24.85;18.75;;;9.50;96.40;;;;;;5114987;28;20028;-68
2022/04/26 04:16:01;;;;;;;24.30;19.45;;;9.50;96.60;;;;;;5116071;28;20035;-69
2022/04/26 04:21:11;;;;;;;23.40;18.73;;;9.40;96.90;;;;;;5115758;28;20038;-68
2022/04/26 04:23:40;;;;;;;24.83;18.80;;;9.50;97.30;;;;;;5114946;28;20036;-67
2022/04/26 04:26:07;;;;;;;22.48;18.60;;;9.50;97.20;;;;;;5114152;28;20489;-68
2022/04/26 04:28:34;;;;;;;23.65;18.80;;;9.50;97.20;;;;;;5114013;28;20028;-68
2022/04/26 04:31:01;;;;;;;24.52;19.30;;;9.50;97.20;;;;;;5114813;28;20020;-69
2022/04/26 04:33:27;;;;;;;24.15;18.58;;;9.50;96.80;;;;;;5114844;28;20055;-69
2022/04/26 04:35:52;;;;;;;26.02;19.55;;;9.40;96.30;;;;;;5115300;28;20066;-68
2022/04/26 04:38:18;;;;;;;22.65;19.17;;;9.40;96.70;;;;;;5115330;28;20362;-69
2022/04/26 04:40:44;;;;;;;27.60;20.10;;;9.40;96.90;;;;;;5114345;28;20515;-68
2022/04/26 04:43:13;;;;;;;22.98;18.55;;;9.40;96.80;;;;;;5115190;28;20034;-69
2022/04/26 04:45:39;;;;;;;26.05;17.98;;;9.40;96.70;;;;;;5110736;28;20101;-69
2022/04/26 04:48:06;;;;;;;22.50;18.23;;;9.50;96.90;;;;;;5114471;28;20460;-69
2022/04/26 04:50:32;;;;;;;22.27;18.00;;;9.50;97.00;;;;;;5113882;28;20069;-67
2022/04/26 04:52:58;;;;;;;25.73;19.60;;;9.50;96.30;;;;;;5114343;28;20027;-68
2022/04/26 04:55:25;;;;;;;25.45;19.95;;;9.60;96.10;;;;;;5115283;28;20457;-67
2022/04/26 04:57:51;;;;;;;25.35;18.90;;;9.60;96.40;;;;;;5114833;28;20028;-68
2022/04/26 05:00:16;;;;;;;23.95;19.00;;;9.60;96.50;;;;;;5114298;28;20089;-68
2022/04/26 05:02:42;;;;;;;25.58;19.77;;;9.60;96.80;;;;;;5113812;28;20035;-69
2022/04/26 05:05:08;;;;;;;26.00;20.20;;;9.60;96.70;;;;;;5114365;28;20080;-67
2022/04/26 05:07:34;;;;;;;26.30;19.95;;;9.70;96.70;;;;;;5114168;27;20057;-68
2022/04/26 05:09:59;;;;;;;25.95;18.88;;;9.70;96.50;;;;;;5114141;28;20498;-67
2022/04/26 05:12:25;;;;;;;23.30;18.40;;;9.80;96.60;;;;;;5114366;28;20024;-68
2022/04/26 05:14:51;;;;;;;23.77;19.10;;;9.90;96.70;;;;;;5113635;28;20488;-69
2022/04/26 05:17:16;;;;;;;24.25;19.48;;;10.00;96.50;;;;;;5114298;28;20042;-67
2022/04/26 05:19:42;;;;;;;23.55;19.73;;;10.10;96.30;;;;;;5113744;28;20463;-68
2022/04/26 05:22:09;;;;;;;24.15;19.52;;;10.20;96.00;;;;;;5114512;28;20428;-68
2022/04/26 05:24:53;;;;;;;29.60;20.30;;;10.30;95.40;;;;;;5113605;28;20085;-68
2022/04/26 05:27:27;;;;;;;26.80;18.73;;;10.50;95.00;;;;;;5114144;28;20111;-68
2022/04/26 05:29:54;;;;;;;23.30;19.00;;;10.50;94.50;;;;;;5114289;28;20024;-68
2022/04/26 05:32:30;;;;;;;24.02;19.13;;;10.60;94.10;;;;;;5113972;28;20028;-69
2022/04/26 05:35:00;;;;;;;23.13;19.65;;;10.70;93.60;;;;;;5112809;28;20028;-69
2022/04/26 05:37:27;;;;;;;26.50;19.33;;;10.80;93.20;;;;;;5112609;28;20032;-68
2022/04/26 05:39:55;;;;;;;26.67;19.58;;;10.90;92.70;;;;;;5113154;28;20119;-68
2022/04/26 05:42:21;;;;;;;21.20;17.27;;;11.00;92.70;;;;;;5113239;28;20429;-69
2022/04/26 05:44:46;;;;;;;22.27;17.27;;;11.10;91.20;;;;;;5112919;28;20066;-69
2022/04/26 05:47:12;;;;;;;19.70;15.93;;;11.30;91.40;;;;;;5113130;28;20059;-68
2022/04/26 05:49:38;;;;;;;22.17;16.15;;;11.50;90.80;;;;;;5094604;28;20118;-68
2022/04/26 05:52:04;;;;;;;20.92;16.85;;;11.60;89.00;;;;;;5113248;28;20053;-69
2022/04/26 05:54:30;;;;;;;20.33;16.00;;;11.80;88.50;;;;;;5113096;28;20453;-68
2022/04/26 05:56:56;;;;;;;19.52;16.17;;;12.00;88.00;;;;;;5113297;28;20031;-69
2022/04/26 05:59:23;;;;;;;21.67;16.20;;;12.20;86.00;;;;;;5113382;28;20035;-69
2022/04/26 06:01:50;;;;;;;18.67;15.43;;;12.50;85.50;;;;;;5112542;28;20035;-69
2022/04/26 06:04:15;;;;;;;17.63;15.20;;;12.70;80.60;;;;;;5113402;28;20059;-68
2022/04/26 06:06:41;;;;;;;16.80;14.50;;;13.30;79.60;;;;;;5112861;28;20428;-69
2022/04/26 06:09:07;;;;;;;20.05;15.75;;;13.30;75.30;;;;;;5113423;28;20030;-69
2022/04/26 06:11:33;;;;;;;18.08;15.60;;;13.20;74.10;;;;;;5111931;28;20019;-68
2022/04/26 06:14:01;;;;;;;17.23;14.68;;;13.10;74.70;;;;;;5113260;28;20055;-67
2022/04/26 06:16:28;;;;;;;21.98;16.77;;;13.00;75.30;;;;;;5113195;28;20023;-69
2022/04/26 06:18:54;;;;;;;18.70;15.48;;;12.90;75.70;;;;;;5112322;28;20038;-69
2022/04/26 06:21:20;;;;;;;21.38;15.85;;;12.90;75.90;;;;;;5111741;28;20043;-68
2022/04/26 06:23:45;;;;;;;19.83;14.93;;;12.80;76.90;;;;;;5112326;28;20035;-69
2022/04/26 06:26:11;;;;;;;19.70;15.07;;;12.70;76.70;;;;;;5112876;28;20020;-69
2022/04/26 06:28:37;;;;;;;19.27;15.00;;;12.70;77.30;;;;;;5112117;28;20028;-68
2022/04/26 06:31:03;;;;;;;16.85;15.10;;;12.60;77.60;;;;;;5112786;28;20028;-68
2022/04/26 06:33:29;;;;;;;19.38;15.13;;;12.60;78.10;;;;;;5112761;28;20024;-68
2022/04/26 06:35:54;;;;;;;18.00;14.48;;;12.60;78.80;;;;;;5111945;28;20028;-68
2022/04/26 06:38:22;;;;;;;18.05;14.68;;;12.60;79.40;;;;;;5112414;28;20038;-69
2022/04/26 06:40:48;;;;;;;18.58;14.40;;;12.60;79.40;;;;;;5112052;27;20072;-68
2022/04/26 06:43:14;;;;;;;16.52;14.35;;;12.60;79.90;;;;;;5110645;28;20027;-69
2022/04/26 06:45:40;;;;;;;18.02;14.02;;;12.60;80.10;;;;;;5111670;28;20028;-68
2022/04/26 06:48:10;;;;;;;16.35;14.05;;;12.60;80.00;;;;;;5112348;28;20035;-69
2022/04/26 06:50:36;;;;;;;16.83;14.20;;;12.60;80.70;;;;;;5111207;28;20046;-68
2022/04/26 06:53:02;;;;;;;18.13;15.40;;;12.60;81.00;;;;;;5110036;28;20032;-69
2022/04/26 06:55:28;;;;;;;16.52;13.65;;;12.60;81.60;;;;;;5111975;28;20024;-68
2022/04/26 06:57:53;;;;;;;17.70;13.27;;;12.50;82.10;;;;;;5110764;28;20097;-69
2022/04/26 07:00:19;;;;;;;14.20;12.70;;;12.50;82.80;;;;;;5111135;28;20401;-69
2022/04/26 07:02:45;;;;;;;16.00;13.93;;;12.50;83.70;;;;;;5111653;28;20028;-70
2022/04/26 07:05:11;;;;;;;17.00;13.52;;;12.60;83.50;;;;;;5112264;28;20034;-68
2022/04/26 07:07:38;;;;;;;17.70;13.25;;;12.50;83.30;;;;;;5111692;28;20036;-68
2022/04/26 07:10:05;;;;;;;16.98;15.02;;;12.60;82.70;;;;;;5112225;28;20020;-69
2022/04/26 07:12:31;;;;;;;15.95;13.77;;;12.60;82.20;;;;;;5111962;28;20161;-69
2022/04/26 07:14:57;;;;;;;19.75;14.27;;;12.60;81.70;;;;;;5111517;28;20097;-69
2022/04/26 07:17:24;;;;;;;23.48;14.70;;;12.50;81.90;;;;;;5112100;28;20032;-69
2022/04/26 07:19:49;;;;;;;21.13;15.60;;;12.50;82.50;;;;;;5111766;28;20103;-69
2022/04/26 07:22:15;;;;;;;18.52;15.52;;;12.50;83.30;;;;;;5112235;28;20149;-69
2022/04/26 07:24:41;;;;;;;20.58;15.57;;;12.40;84.00;;;;;;5111399;28;20020;-69
2022/04/26 07:27:07;;;;;;;21.00;15.45;;;12.40;84.20;;;;;;5112311;28;20031;-69
2022/04/26 07:29:32;;;;;;;19.17;16.17;;;12.40;84.50;;;;;;5112064;28;20424;-69
2022/04/26 07:31:58;;;;;;;20.05;15.32;;;12.40;84.40;;;;;;5111123;28;20095;-69
2022/04/26 07:34:25;;;;;;;20.23;14.90;;;12.30;84.60;;;;;;5112124;28;20372;-69
2022/04/26 07:37:00;;;;;;;19.55;14.73;;;12.30;84.30;;;;;;5111480;28;20024;-68
2022/04/26 07:39:26;;;;;;;17.63;14.65;;;12.30;84.50;;;;;;5112021;28;20027;-68
2022/04/26 07:41:52;;;;;;;19.25;15.77;;;12.20;85.20;;;;;;5111207;28;20556;-69
2022/04/26 07:44:18;;;;;;;22.90;14.88;;;12.20;85.30;;;;;;5112361;28;20099;-69
2022/04/26 07:46:46;;;;;;;20.33;15.15;;;12.20;85.40;;;;;;5110204;28;20030;-69
2022/04/26 07:49:13;;;;;;;21.05;15.88;;;12.20;85.50;;;;;;5111930;28;20028;-69
2022/04/26 07:51:38;;;;;;;18.55;15.45;;;12.20;85.00;;;;;;5111182;28;20027;-69
2022/04/26 07:54:06;;;;;;;22.00;15.82;;;12.20;85.40;;;;;;5112229;28;20536;-69
2022/04/26 07:56:32;;;;;;;20.50;15.43;;;12.20;85.10;;;;;;5111675;28;20035;-69
2022/04/26 07:58:59;;;;;;;26.63;16.17;;;12.10;86.10;;;;;;5111300;28;20486;-69
2022/04/26 08:01:25;;;;;;;25.17;16.52;;;12.20;85.80;;;;;;5111768;28;20483;-69
2022/04/26 08:03:52;;;;;;;27.27;16.60;;;12.20;86.10;;;;;;5111960;28;20024;-70
2022/04/26 08:06:18;;;;;;;21.13;16.90;;;12.20;86.20;;;;;;5115593;28;20494;-70
2022/04/26 08:08:44;;;;;;;20.02;15.85;;;12.10;86.00;;;;;;5113815;28;20384;-69
2022/04/26 08:11:12;;;;;;;22.00;16.20;;;12.10;86.80;;;;;;5115337;28;20027;-68
2022/04/26 08:13:40;;;;;;;21.98;15.95;;;12.10;87.00;;;;;;5114666;28;20054;-69
2022/04/26 08:16:06;;;;;;;21.52;16.90;;;12.10;86.80;;;;;;5115472;28;20114;-68
2022/04/26 08:18:32;;;;;;;23.80;17.08;;;12.10;86.80;;;;;;5115234;28;20027;-68
2022/04/26 08:20:59;;;;;;;22.08;17.67;;;12.10;86.60;;;;;;5114556;28;20120;-69
2022/04/26 08:23:24;;;;;;;22.65;16.25;;;12.10;87.20;;;;;;5115348;28;20038;-67
2022/04/26 08:28:35;;;;;;;21.98;17.42;;;12.10;86.40;;;;;;5115121;28;20495;-68
2022/04/26 08:31:01;;;;;;;26.23;17.88;;;12.10;86.90;;;;;;5113225;28;20441;-68
2022/04/26 08:33:28;;;;;;;25.75;18.13;;;12.10;87.10;;;;;;5114917;28;20494;-68
2022/04/26 08:35:54;;;;;;;22.15;16.88;;;12.10;87.20;;;;;;5114421;28;20106;-68
2022/04/26 08:38:20;;;;;;;21.88;16.67;;;12.10;87.60;;;;;;5115136;28;20107;-68
2022/04/26 08:40:45;;;;;;;25.52;16.67;;;12.10;87.80;;;;;;5114772;28;20352;-69
2022/04/26 08:43:11;;;;;;;25.15;18.08;;;12.10;87.70;;;;;;5115335;28;20456;-68
2022/04/26 08:45:41;;;;;;;23.55;17.83;;;12.10;87.30;;;;;;5114768;28;20020;-68
2022/04/26 08:51:03;;;;;;;23.20;17.45;;;12.10;88.00;;;;;;5114073;28;20114;-69
2022/04/26 08:53:30;;;;;;;23.83;17.70;;;12.10;88.10;;;;;;5115092;28;20028;-68
2022/04/26 08:56:01;;;;;;;28.80;18.33;;;12.10;88.20;;;;;;5114195;28;20085;-69
2022/04/26 08:58:32;;;;;;;23.05;17.27;;;12.10;87.80;;;;;;5114752;28;20119;-69
2022/04/26 09:01:22;;;;;;;23.02;18.00;;;12.10;87.60;;;;;;5114117;28;20023;-69
2022/04/26 09:03:54;;;;;;;23.55;17.77;;;12.10;87.60;;;;;;5114176;28;20027;-70
2022/04/26 09:06:43;;;;;;;24.98;18.98;;;12.10;88.10;;;;;;5114582;28;20027;-69
2022/04/26 09:09:18;;;;;;;25.80;18.73;;;12.10;88.20;;;;;;5113219;28;20036;-68
2022/04/26 09:14:29;;;;;;;23.67;19.10;;;12.10;89.10;;;;;;5113967;28;20055;-69
2022/04/26 09:17:09;;;;;;;31.55;22.05;;;12.10;89.00;;;;;;5113088;28;20027;-68
2022/04/26 09:19:53;;;;;;;30.00;20.55;;;12.10;88.10;;;;;;5114402;28;20050;-68
2022/04/26 09:22:21;;;;;;;26.42;20.75;;;12.10;89.30;;;;;;5112797;28;20408;-69
2022/04/26 09:25:02;;;;;;;26.60;20.55;;;12.10;89.80;;;;;;5113534;28;20027;-69
2022/04/26 09:27:29;;;;;;;;;;;12.10;89.40;;;;;;5114646;28;20027;-69
2022/04/26 09:29:55;;;;;;;25.25;20.83;;;12.10;89.80;;;;;;5113603;28;20260;-69
2022/04/26 09:32:23;;;;;;;27.10;21.45;;;12.10;89.30;;;;;;5113947;28;20024;-69
2022/04/26 09:34:49;;;;;;;28.75;21.23;;;12.10;90.10;;;;;;5113225;28;20446;-70
2022/04/26 09:37:16;;;;;;;27.10;20.95;;;12.10;90.40;;;;;;5113801;28;20031;-69
2022/04/26 09:40:02;;;;;;;26.77;21.23;;;12.20;90.30;;;;;;5113727;28;20027;-69
2022/04/26 09:42:33;;;;;;;26.75;20.98;;;12.20;90.40;;;;;;5113814;28;20024;-69
2022/04/26 09:45:10;;;;;;;25.15;20.30;;;12.20;90.40;;;;;;5112826;28;20031;-69
2022/04/26 09:47:45;;;;;;;26.48;21.08;;;12.20;90.20;;;;;;5113573;28;20384;-69
2022/04/26 09:50:13;;;;;;;23.50;19.75;;;12.20;90.10;;;;;;5113521;28;20032;-69
2022/04/26 09:52:40;;;;;;;26.15;20.30;;;12.30;90.00;;;;;;5113564;28;20406;-69
2022/04/26 09:55:08;;;;;;;26.65;20.45;;;12.30;89.00;;;;;;5111740;28;20027;-68
2022/04/26 09:57:38;;;;;;;24.70;19.58;;;12.30;89.20;;;;;;5113198;28;20476;-69
2022/04/26 10:00:08;;;;;;;24.35;20.15;;;12.30;89.40;;;;;;5113008;28;20106;-69
2022/04/26 10:02:36;;;;;;;26.67;19.42;;;12.30;89.40;;;;;;5113656;28;20028;-68
2022/04/26 10:05:07;;;;;;;26.77;19.10;;;12.30;89.60;;;;;;5112930;28;20479;-69
2022/04/26 10:07:37;;;;;;;;;;;12.30;88.80;;;;;;5113801;28;20062;-69
2022/04/26 10:10:06;;;;;;;26.02;20.42;;;12.30;89.00;;;;;;5112399;28;19988;-68
2022/04/26 10:12:32;;;;;;;26.33;19.02;;;12.30;89.30;;;;;;5113189;28;20027;-68
2022/04/26 10:15:00;;;;;;;24.52;18.67;;;12.30;88.10;;;;;;5110777;28;20459;-69
2022/04/26 10:17:26;;;;;;;30.90;19.40;;;12.30;89.20;;;;;;5112930;28;20035;-68
2022/04/26 10:19:51;;;;;;;20.27;18.05;;;12.30;89.50;;;;;;5112629;28;20385;-68
2022/04/26 10:22:56;;;;;;;28.92;19.60;;;12.40;90.10;;;;;;5112916;28;20031;-68
2022/04/26 10:25:23;;;;;;;22.33;18.05;;;12.40;89.60;;;;;;5113339;28;20031;-68
2022/04/26 10:28:16;;;;;;;22.13;17.33;;;12.30;88.90;;;;;;5112391;28;20039;-69
2022/04/26 10:30:55;;;;;;;23.45;18.38;;;12.40;89.50;;;;;;5113113;28;20027;-69
2022/04/26 10:33:34;;;;;;;23.33;17.73;;;12.40;89.00;;;;;;5112990;28;20072;-69
2022/04/26 10:36:28;;;;;;;20.10;16.50;;;12.40;88.90;;;;;;5112214;28;20035;-68
2022/04/26 10:39:05;;;;;;;21.92;17.40;;;12.50;89.10;;;;;;5112140;28;20039;-69
2022/04/26 10:41:37;;;;;;;21.05;17.60;;;12.60;88.40;;;;;;5112624;28;20024;-68
2022/04/26 10:44:20;;;;;;;23.83;18.25;;;12.60;89.80;;;;;;5112113;28;20349;-69
2022/04/26 10:47:09;;;;;;;22.90;18.08;;;12.60;90.00;;;;;;5112545;28;20034;-68
2022/04/26 10:49:40;;;;;;;22.73;19.13;;;12.60;90.50;;;;;;5112725;28;20023;-68
2022/04/26 10:52:15;;;;;;;22.08;18.23;;;12.60;91.30;;;;;;5111749;28;20499;-69
2022/04/26 10:54:58;;;;;;;21.02;17.77;;;12.60;91.40;;;;;;5112443;28;20536;-68
2022/04/26 10:57:45;;;;;;;21.80;17.98;;;12.60;92.00;;;;;;5112596;28;20028;-69
2022/04/26 11:00:17;;;;;;;22.48;18.08;;;12.50;91.50;;;;;;5110598;28;20484;-69
2022/04/26 11:02:45;;;;;;;20.55;17.88;;;12.50;91.50;;;;;;5112638;28;20431;-68
2022/04/26 11:05:14;;;;;;;21.92;17.55;;;12.50;91.80;;;;;;5111819;28;20031;-69
2022/04/26 11:07:42;;;;;;;23.00;17.65;;;12.50;92.00;;;;;;5112406;28;20034;-69
2022/04/26 11:10:09;;;;;;;20.70;17.48;;;12.60;92.40;;;;;;5111846;28;20357;-69
2022/04/26 11:12:37;;;;;;;19.23;16.73;;;12.60;92.30;;;;;;5112520;28;20081;-69
2022/04/26 11:15:11;;;;;;;19.38;16.70;;;12.70;91.70;;;;;;5111791;28;20384;-69
2022/04/26 11:17:38;;;;;;;21.38;16.88;;;12.70;90.80;;;;;;5112416;28;20039;-69
2022/04/26 11:20:12;;;;;;;22.98;18.00;;;12.80;90.40;;;;;;5111837;28;20030;-69
2022/04/26 11:22:56;;;;;;;20.40;17.13;;;12.90;90.60;;;;;;5112299;28;20413;-69
2022/04/26 11:28:12;;;;;;;19.17;17.13;;;13.00;90.70;;;;;;5111865;28;21001;-67
2022/04/26 11:30:54;;;;;;;20.98;16.90;;;13.10;90.30;;;;;;5112331;28;20034;-68
2022/04/26 11:33:24;;;;;;;23.10;16.27;;;13.20;90.40;;;;;;5112707;28;20035;-68
2022/04/26 11:35:58;;;;;;;18.83;14.77;;;13.30;90.30;;;;;;5112249;28;20034;-68
2022/04/26 11:38:25;;;;;;;14.88;13.32;;;13.40;87.20;;;;;;5112861;28;20024;-69
2022/04/26 11:41:00;;;;;;;18.38;13.77;;;13.50;85.20;;;;;;5115979;28;20051;-68
2022/04/26 11:43:27;;;;;;;17.23;13.25;;;13.60;82.30;;;;;;5116267;28;20065;-69
2022/04/26 11:45:55;;;;;;;15.65;12.07;;;13.70;81.00;;;;;;5115382;28;20031;-67
2022/04/26 11:48:26;;;;;;;13.25;11.90;;;13.80;80.80;;;;;;5115848;28;20028;-67
2022/04/26 11:50:54;;;;;;;17.17;12.48;;;13.90;80.60;;;;;;5115836;28;20102;-68
2022/04/26 11:53:22;;;;;;;14.95;12.52;;;13.90;77.90;;;;;;5115990;28;20031;-68
2022/04/26 11:55:56;;;;;;;12.38;9.48;;;13.90;78.00;;;;;;5116012;28;20024;-68
2022/04/26 11:58:27;;;;;;;12.13;10.80;;;13.90;74.30;;;;;;5115954;28;20147;-69
2022/04/26 12:01:00;;;;;;;13.85;11.68;;;14.00;74.10;;;;;;5115575;28;20384;-68
2022/04/26 12:03:40;;;;;;;17.23;11.85;;;14.10;75.40;;;;;;5115537;28;20428;-68
2022/04/26 12:06:10;;;;;;;15.68;10.93;;;14.20;76.50;;;;;;5115088;28;20023;-69
2022/04/26 12:08:46;;;;;;;12.77;10.70;;;14.30;75.30;;;;;;5115476;27;20036;-68
2022/04/26 12:11:22;;;;;;;13.23;8.30;;;14.30;74.50;;;;;;5114558;28;20283;-69
2022/04/26 12:14:17;;;;;;;11.55;8.90;;;14.30;72.10;;;;;;5115363;28;20449;-67
2022/04/26 12:16:47;;;;;;;10.32;9.00;;;14.40;69.90;;;;;;5115613;28;20024;-68
2022/04/26 12:19:14;;;;;;;9.82;8.40;;;14.50;69.70;;;;;;5114729;28;20027;-68
2022/04/26 12:21:48;;;;;;;8.57;6.97;;;14.50;69.20;;;;;;5115325;28;20031;-69
2022/04/26 12:24:26;;;;;;;13.98;7.30;;;14.50;66.90;;;;;;5114756;28;20024;-68
2022/04/26 12:26:59;;;;;;;9.38;7.70;;;14.60;66.20;;;;;;5115803;28;20028;-68
2022/04/26 12:29:26;;;;;;;10.30;6.90;;;14.60;65.10;;;;;;5115254;28;20391;-69
2022/04/26 12:31:52;;;;;;;11.32;7.13;;;14.50;65.60;;;;;;5115287;28;20028;-69
2022/04/26 12:34:24;;;;;;;8.38;6.30;;;14.50;66.40;;;;;;5114672;28;20026;-69
2022/04/26 12:36:51;;;;;;;10.95;6.47;;;14.50;67.20;;;;;;5113750;28;20027;-69
2022/04/26 12:39:18;;;;;;;7.40;5.95;;;14.50;66.00;;;;;;5114386;28;20039;-69
2022/04/26 12:41:52;;;;;;;8.38;5.97;;;14.50;65.60;;;;;;5115074;28;20054;-69
2022/04/26 12:44:18;;;;;;;8.25;5.93;;;14.50;64.40;;;;;;5114356;28;20036;-67
2022/04/26 12:52:45;;;;;;;7.82;5.40;;;14.40;64.80;;;;;;5114631;28;20053;-68
2022/04/26 12:55:10;;;;;;;7.30;5.18;;;14.40;64.30;;;;;;5114064;28;20020;-69
2022/04/26 12:57:50;;;;;;;6.20;5.40;;;14.40;63.00;;;;;;5114787;28;20058;-68
2022/04/26 13:00:18;;;;;;;7.28;5.57;;;14.30;62.70;;;;;;5113769;28;20028;-69
2022/04/26 13:02:45;;;;;;;10.43;5.97;;;14.40;62.80;;;;;;5113260;28;20154;-69
2022/04/26 13:05:11;;;;;;;8.63;5.75;;;14.40;63.60;;;;;;5113476;28;20031;-69
2022/04/26 13:07:37;;;;;;;8.75;5.82;;;14.40;64.60;;;;;;5113828;28;20032;-67
2022/04/26 13:10:04;;;;;;;9.40;6.03;;;14.40;64.50;;;;;;5113906;28;20028;-68
2022/04/26 13:12:29;;;;;;;10.82;5.82;;;14.40;64.20;;;;;;5114398;28;20101;-68
2022/04/26 13:14:55;;;;;;;12.15;5.70;;;14.40;64.10;;;;;;5114337;28;20043;-68
2022/04/26 13:17:21;;;;;;;11.00;6.28;;;14.40;64.70;;;;;;5113473;28;20035;-69
2022/04/26 13:19:47;;;;;;;7.78;5.90;;;14.40;65.10;;;;;;5114112;28;20454;-68
2022/04/26 13:22:15;;;;;;;10.52;6.53;;;14.40;65.70;;;;;;5113554;28;20373;-69
2022/04/26 13:24:41;;;;;;;11.27;6.50;;;14.50;66.00;;;;;;5112957;28;20441;-68
2022/04/26 13:27:06;;;;;;;7.93;6.55;;;14.50;66.20;;;;;;5113240;28;20066;-69
2022/04/26 13:29:32;;;;;;;8.15;6.38;;;14.50;66.10;;;;;;5114216;28;20050;-69
2022/04/26 13:31:59;;;;;;;7.60;6.75;;;14.50;66.40;;;;;;5113618;27;20027;-69
2022/04/26 13:34:25;;;;;;;10.07;6.72;;;14.40;66.30;;;;;;5113508;28;20024;-68
2022/04/26 13:36:51;;;;;;;8.90;7.30;;;14.50;67.00;;;;;;5113967;28;20388;-69
2022/04/26 13:39:17;;;;;;;10.10;7.40;;;14.40;66.60;;;;;;5113156;28;20130;-68
2022/04/26 13:41:43;;;;;;;8.50;7.60;;;14.40;67.10;;;;;;5113326;28;20467;-68
2022/04/26 13:44:08;;;;;;;9.07;7.60;;;14.40;66.80;;;;;;5112852;28;20053;-69
2022/04/26 13:46:35;;;;;;;13.40;7.47;;;14.40;67.00;;;;;;5113363;28;20023;-68
2022/04/26 13:49:02;;;;;;;10.65;7.43;;;14.40;67.20;;;;;;5113026;28;20034;-69
2022/04/26 13:51:29;;;;;;;9.10;7.38;;;14.40;68.00;;;;;;5113503;28;20110;-68
2022/04/26 13:53:55;;;;;;;10.68;7.72;;;14.40;67.30;;;;;;5113545;28;20042;-69
2022/04/26 13:56:21;;;;;;;9.88;7.90;;;14.50;67.60;;;;;;5112779;28;20036;-68
2022/04/26 13:58:46;;;;;;;9.77;7.57;;;14.50;67.50;;;;;;5113394;28;20156;-68
2022/04/26 14:01:12;;;;;;;8.10;6.57;;;14.50;67.50;;;;;;5112527;28;20023;-69
2022/04/26 14:03:38;;;;;;;9.00;6.70;;;14.60;67.50;;;;;;5113445;28;20035;-69
2022/04/26 14:06:03;;;;;;;8.68;6.68;;;14.60;67.30;;;;;;5112693;28;20503;-70
2022/04/26 14:08:31;;;;;;;9.20;6.25;;;14.70;67.40;;;;;;5112718;28;20028;-68
2022/04/26 14:10:57;;;;;;;14.40;7.30;;;14.80;67.00;;;;;;5113006;28;20059;-70
2022/04/26 14:13:23;;;;;;;13.13;7.28;;;14.90;66.90;;;;;;5112598;28;20512;-70
2022/04/26 14:24:04;;;;;;;9.98;7.10;;;15.10;65.50;;;;;;5112834;28;20027;-70
2022/04/26 14:26:30;;;;;;;10.77;7.05;;;15.10;65.40;;;;;;5111224;28;20028;-69
2022/04/26 14:28:56;;;;;;;8.93;6.95;;;15.00;65.30;;;;;;5113004;27;20027;-70
2022/04/26 14:31:21;;;;;;;8.40;6.35;;;15.00;65.30;;;;;;5112138;28;20081;-69
2022/04/26 14:33:47;;;;;;;11.43;7.20;;;15.00;65.70;;;;;;5112673;28;20027;-71
2022/04/26 14:36:13;;;;;;;9.90;7.47;;;15.00;65.80;;;;;;5112022;28;20098;-70
2022/04/26 14:38:38;;;;;;;12.00;8.75;;;15.00;66.20;;;;;;5112763;28;20032;-70
2022/04/26 14:41:04;;;;;;;13.75;9.05;;;15.10;66.50;;;;;;5113083;28;20028;-69
2022/04/26 14:43:30;;;;;;;12.27;8.75;;;15.10;66.60;;;;;;5112943;28;20024;-70
2022/04/26 14:45:56;;;;;;;10.73;8.60;;;15.10;66.80;;;;;;5112418;28;20084;-69
2022/04/26 14:48:23;;;;;;;9.40;8.15;;;15.10;67.00;;;;;;5111649;28;20395;-70
2022/04/26 14:50:49;;;;;;;10.52;8.52;;;15.10;66.90;;;;;;5111953;28;20512;-68
2022/04/26 14:53:15;;;;;;;8.90;7.78;;;15.10;66.80;;;;;;5111551;28;20020;-69
2022/04/26 14:55:41;;;;;;;10.98;8.15;;;15.10;67.70;;;;;;5111941;28;20179;-69
2022/04/26 14:58:09;;;;;;;10.80;8.00;;;15.10;67.20;;;;;;5111235;28;20039;-69
2022/04/26 15:00:36;;;;;;;8.95;7.25;;;15.20;67.00;;;;;;5111940;28;20020;-69
2022/04/26 15:03:02;;;;;;;10.48;8.48;;;15.20;67.20;;;;;;5112655;28;20030;-70
2022/04/26 15:05:28;;;;;;;12.32;8.73;;;15.30;66.90;;;;;;5111761;28;20019;-70
2022/04/26 15:10:38;;;;;;;13.00;8.23;;;15.40;66.70;;;;;;5112286;28;20483;-70
2022/04/26 15:18:33;;;;;;;10.18;8.98;;;15.30;66.80;;;;;;5115774;28;20039;-70
2022/04/26 15:20:59;;;;;;;16.02;9.48;;;15.30;66.70;;;;;;5116672;28;20031;-70
2022/04/26 15:23:25;;;;;;;12.10;8.85;;;15.30;66.80;;;;;;5115751;28;20102;-70
2022/04/26 15:25:52;;;;;;;10.95;9.25;;;15.30;66.90;;;;;;5116349;28;20149;-70
2022/04/26 15:28:22;;;;;;;12.30;9.45;;;15.30;67.40;;;;;;5115313;28;20023;-70
2022/04/26 15:30:49;;;;;;;10.55;9.45;;;15.30;67.60;;;;;;5115867;28;20030;-69
2022/04/26 15:33:16;;;;;;;11.02;9.82;;;15.30;67.70;;;;;;5113791;28;20114;-69
2022/04/26 15:35:42;;;;;;;12.55;9.40;;;15.20;68.00;;;;;;5115535;28;20024;-69
2022/04/26 15:38:12;;;;;;;12.02;9.85;;;15.20;68.30;;;;;;5115820;28;20396;-70
2022/04/26 15:40:43;;;;;;;11.53;10.03;;;15.20;68.20;;;;;;5115663;28;20038;-69
2022/04/26 15:43:09;;;;;;;12.80;9.93;;;15.20;68.10;;;;;;5115539;28;20038;-70
2022/04/26 15:45:36;;;;;;;11.88;9.85;;;15.10;68.30;;;;;;5115812;28;20020;-70
2022/04/26 15:48:02;;;;;;;12.75;10.50;;;15.10;68.10;;;;;;5115859;28;20059;-70
2022/04/26 15:50:28;;;;;;;11.40;10.20;;;15.10;68.30;;;;;;5115112;28;20023;-70
2022/04/26 15:52:54;;;;;;;13.00;10.15;;;15.00;68.60;;;;;;5115871;28;20027;-70
2022/04/26 15:55:21;;;;;;;11.63;9.25;;;15.00;69.00;;;;;;5114934;28;20085;-69
2022/04/26 15:57:47;;;;;;;14.32;10.00;;;15.00;69.10;;;;;;5115370;28;20119;-70
2022/04/26 16:00:14;;;;;;;11.70;9.88;;;15.00;69.00;;;;;;5114635;28;20115;-71
2022/04/26 16:02:42;;;;;;;13.25;10.85;;;15.00;68.80;;;;;;5115260;28;20115;-70
2022/04/26 16:05:08;;;;;;;12.32;10.18;;;15.00;68.70;;;;;;5115522;28;20024;-69
2022/04/26 16:07:34;;;;;;;11.73;9.93;;;15.00;68.70;;;;;;5115112;28;20110;-70
2022/04/26 16:20:56;;;;;;;14.73;10.40;;;15.00;69.60;;;;;;5114569;28;20038;-69
2022/04/26 16:23:22;;;;;;;16.92;10.60;;;15.00;69.60;;;;;;5114039;28;20020;-69
2022/04/26 16:25:47;;;;;;;15.45;9.88;;;15.00;69.30;;;;;;5114644;28;20077;-70
2022/04/26 16:28:13;;;;;;;12.35;9.93;;;15.00;69.10;;;;;;5114130;28;20027;-70
2022/04/26 16:30:41;;;;;;;12.40;9.90;;;15.00;69.30;;;;;;5114794;28;20024;-70
2022/04/26 16:33:08;;;;;;;14.13;9.35;;;15.00;69.50;;;;;;5114583;28;20035;-69
2022/04/26 16:35:34;;;;;;;13.10;9.63;;;14.90;69.50;;;;;;5113992;28;20032;-69
2022/04/26 16:38:01;;;;;;;14.38;10.80;;;14.90;69.40;;;;;;5114880;28;20035;-70
2022/04/26 16:40:28;;;;;;;11.88;9.10;;;14.90;69.50;;;;;;5114269;28;20464;-69
2022/04/26 16:42:54;;;;;;;13.48;9.82;;;15.00;69.40;;;;;;5114735;28;20024;-69
2022/04/26 16:45:20;;;;;;;11.75;9.63;;;14.90;69.20;;;;;;5114167;28;20027;-69
2022/04/26 16:47:46;;;;;;;12.15;9.63;;;14.90;69.10;;;;;;5114795;28;20031;-70
2022/04/26 16:50:12;;;;;;;14.15;9.32;;;14.90;69.10;;;;;;5114199;28;20361;-71
2022/04/26 16:52:39;;;;;;;14.30;9.32;;;14.80;69.20;;;;;;5113536;28;20027;-69
2022/04/26 16:55:05;;;;;;;13.45;9.40;;;14.80;69.10;;;;;;5114835;28;20019;-70
2022/04/26 16:57:31;;;;;;;15.38;9.10;;;14.80;69.30;;;;;;5113571;28;20036;-69
2022/04/26 16:59:58;;;;;;;12.63;10.32;;;14.70;69.80;;;;;;5114348;28;20095;-69
2022/04/26 17:02:24;;;;;;;10.95;8.98;;;14.70;69.40;;;;;;5113305;28;20055;-69